sensor_id;sensor_type;location;lat;lon;timestamp;P1;durP1;ratioP1;P2;durP2;ratioP2
59062;SDS011;44851;45.648;9.004;2023-01-29T00:01:10;40.17;;;22.50;;
59062;SDS011;44851;45.648;9.004;2023-01-29T00:03:36;42.80;;;23.90;;
59062;SDS011;44851;45.648;9.004;2023-01-29T00:06:05;40.20;;;22.90;;
59062;SDS011;44851;45.648;9.004;2023-01-29T00:08:35;47.77;;;25.50;;
59062;SDS011;44851;45.648;9.004;2023-01-29T00:11:05;45.43;;;24.47;;
59062;SDS011;44851;45.648;9.004;2023-01-29T00:13:32;44.63;;;24.67;;
59062;SDS011;44851;45.648;9.004;2023-01-29T00:16:01;43.67;;;24.37;;
59062;SDS011;44851;45.648;9.004;2023-01-29T00:18:28;43.53;;;23.97;;
59062;SDS011;44851;45.648;9.004;2023-01-29T00:20:54;37.60;;;22.97;;
59062;SDS011;44851;45.648;9.004;2023-01-29T00:23:20;37.30;;;22.60;;
59062;SDS011;44851;45.648;9.004;2023-01-29T00:25:45;42.30;;;24.57;;
59062;SDS011;44851;45.648;9.004;2023-01-29T00:28:11;37.73;;;23.80;;
59062;SDS011;44851;45.648;9.004;2023-01-29T00:30:37;37.60;;;21.17;;
59062;SDS011;44851;45.648;9.004;2023-01-29T00:33:03;39.17;;;22.00;;
59062;SDS011;44851;45.648;9.004;2023-01-29T00:35:29;36.30;;;21.50;;
59062;SDS011;44851;45.648;9.004;2023-01-29T00:37:55;35.83;;;20.80;;
59062;SDS011;44851;45.648;9.004;2023-01-29T00:40:21;36.37;;;19.77;;
59062;SDS011;44851;45.648;9.004;2023-01-29T00:42:47;31.63;;;19.70;;
59062;SDS011;44851;45.648;9.004;2023-01-29T00:45:31;30.37;;;18.30;;
59062;SDS011;44851;45.648;9.004;2023-01-29T00:47:57;36.20;;;21.40;;
59062;SDS011;44851;45.648;9.004;2023-01-29T00:50:23;35.23;;;19.77;;
59062;SDS011;44851;45.648;9.004;2023-01-29T00:52:48;31.63;;;19.53;;
59062;SDS011;44851;45.648;9.004;2023-01-29T00:55:15;32.03;;;18.77;;
59062;SDS011;44851;45.648;9.004;2023-01-29T00:57:41;33.37;;;19.37;;
59062;SDS011;44851;45.648;9.004;2023-01-29T01:00:08;32.07;;;19.07;;
59062;SDS011;44851;45.648;9.004;2023-01-29T01:02:35;34.20;;;18.37;;
59062;SDS011;44851;45.648;9.004;2023-01-29T01:05:19;31.33;;;17.80;;
59062;SDS011;44851;45.648;9.004;2023-01-29T01:07:46;31.47;;;18.00;;
59062;SDS011;44851;45.648;9.004;2023-01-29T01:10:22;31.47;;;17.60;;
59062;SDS011;44851;45.648;9.004;2023-01-29T01:12:54;34.43;;;18.77;;
59062;SDS011;44851;45.648;9.004;2023-01-29T01:15:25;34.37;;;17.93;;
59062;SDS011;44851;45.648;9.004;2023-01-29T01:18:02;32.63;;;18.23;;
59062;SDS011;44851;45.648;9.004;2023-01-29T01:20:29;31.20;;;17.97;;
59062;SDS011;44851;45.648;9.004;2023-01-29T01:22:57;29.37;;;18.33;;
59062;SDS011;44851;45.648;9.004;2023-01-29T01:25:22;27.70;;;16.33;;
59062;SDS011;44851;45.648;9.004;2023-01-29T01:27:53;26.17;;;16.10;;
59062;SDS011;44851;45.648;9.004;2023-01-29T01:30:19;32.10;;;17.93;;
59062;SDS011;44851;45.648;9.004;2023-01-29T01:32:46;28.60;;;17.37;;
59062;SDS011;44851;45.648;9.004;2023-01-29T01:35:11;32.30;;;18.50;;
59062;SDS011;44851;45.648;9.004;2023-01-29T01:37:38;30.33;;;17.33;;
59062;SDS011;44851;45.648;9.004;2023-01-29T01:40:06;30.70;;;17.73;;
59062;SDS011;44851;45.648;9.004;2023-01-29T01:42:37;32.57;;;17.70;;
59062;SDS011;44851;45.648;9.004;2023-01-29T01:45:04;31.27;;;16.43;;
59062;SDS011;44851;45.648;9.004;2023-01-29T01:50:12;28.63;;;16.83;;
59062;SDS011;44851;45.648;9.004;2023-01-29T01:52:43;28.90;;;16.93;;
59062;SDS011;44851;45.648;9.004;2023-01-29T01:55:12;28.20;;;16.30;;
59062;SDS011;44851;45.648;9.004;2023-01-29T01:57:41;28.27;;;16.77;;
59062;SDS011;44851;45.648;9.004;2023-01-29T02:00:10;30.53;;;16.47;;
59062;SDS011;44851;45.648;9.004;2023-01-29T02:02:40;26.00;;;16.33;;
59062;SDS011;44851;45.648;9.004;2023-01-29T02:05:26;29.33;;;15.93;;
59062;SDS011;44851;45.648;9.004;2023-01-29T02:08:12;27.23;;;16.63;;
59062;SDS011;44851;45.648;9.004;2023-01-29T02:10:58;29.00;;;17.13;;
59062;SDS011;44851;45.648;9.004;2023-01-29T02:13:24;26.00;;;15.73;;
59062;SDS011;44851;45.648;9.004;2023-01-29T02:15:50;26.80;;;15.43;;
59062;SDS011;44851;45.648;9.004;2023-01-29T02:18:16;29.40;;;15.63;;
59062;SDS011;44851;45.648;9.004;2023-01-29T02:21:29;30.30;;;16.47;;
59062;SDS011;44851;45.648;9.004;2023-01-29T02:27:13;27.93;;;16.60;;
59062;SDS011;44851;45.648;9.004;2023-01-29T02:32:24;29.57;;;15.97;;
59062;SDS011;44851;45.648;9.004;2023-01-29T02:44:23;29.13;;;16.63;;
59062;SDS011;44851;45.648;9.004;2023-01-29T02:57:28;27.80;;;15.43;;
59062;SDS011;44851;45.648;9.004;2023-01-29T02:59:58;24.10;;;15.57;;
59062;SDS011;44851;45.648;9.004;2023-01-29T03:02:29;29.23;;;16.17;;
59062;SDS011;44851;45.648;9.004;2023-01-29T03:05:02;30.13;;;15.27;;
59062;SDS011;44851;45.648;9.004;2023-01-29T03:07:34;32.23;;;17.03;;
59062;SDS011;44851;45.648;9.004;2023-01-29T03:10:12;27.37;;;15.33;;
59062;SDS011;44851;45.648;9.004;2023-01-29T03:12:42;29.70;;;15.97;;
59062;SDS011;44851;45.648;9.004;2023-01-29T03:15:12;28.87;;;14.93;;
59062;SDS011;44851;45.648;9.004;2023-01-29T03:17:46;27.57;;;15.63;;
59062;SDS011;44851;45.648;9.004;2023-01-29T03:20:28;26.67;;;16.00;;
59062;SDS011;44851;45.648;9.004;2023-01-29T03:23:01;24.93;;;14.67;;
59062;SDS011;44851;45.648;9.004;2023-01-29T03:25:31;30.40;;;14.07;;
59062;SDS011;44851;45.648;9.004;2023-01-29T03:28:18;28.10;;;15.00;;
59062;SDS011;44851;45.648;9.004;2023-01-29T03:31:04;28.73;;;15.17;;
59062;SDS011;44851;45.648;9.004;2023-01-29T03:34:04;25.23;;;14.87;;
59062;SDS011;44851;45.648;9.004;2023-01-29T03:36:38;25.03;;;15.73;;
59062;SDS011;44851;45.648;9.004;2023-01-29T03:39:11;25.70;;;14.33;;
59062;SDS011;44851;45.648;9.004;2023-01-29T03:41:41;28.67;;;15.17;;
59062;SDS011;44851;45.648;9.004;2023-01-29T03:52:47;27.23;;;14.03;;
59062;SDS011;44851;45.648;9.004;2023-01-29T03:55:24;24.30;;;12.87;;
59062;SDS011;44851;45.648;9.004;2023-01-29T03:58:03;27.70;;;14.03;;
59062;SDS011;44851;45.648;9.004;2023-01-29T04:00:44;26.73;;;14.70;;
59062;SDS011;44851;45.648;9.004;2023-01-29T04:06:21;23.17;;;12.90;;
59062;SDS011;44851;45.648;9.004;2023-01-29T04:11:22;25.07;;;13.40;;
59062;SDS011;44851;45.648;9.004;2023-01-29T04:13:49;22.30;;;13.53;;
59062;SDS011;44851;45.648;9.004;2023-01-29T04:16:30;23.80;;;13.73;;
59062;SDS011;44851;45.648;9.004;2023-01-29T04:19:00;23.23;;;13.20;;
59062;SDS011;44851;45.648;9.004;2023-01-29T04:21:26;22.43;;;13.20;;
59062;SDS011;44851;45.648;9.004;2023-01-29T04:23:52;22.77;;;12.53;;
59062;SDS011;44851;45.648;9.004;2023-01-29T04:27:04;26.53;;;14.73;;
59062;SDS011;44851;45.648;9.004;2023-01-29T04:29:19;25.00;;;13.03;;
59062;SDS011;44851;45.648;9.004;2023-01-29T04:32:14;22.50;;;11.90;;
59062;SDS011;44851;45.648;9.004;2023-01-29T04:40:29;25.70;;;13.53;;
59062;SDS011;44851;45.648;9.004;2023-01-29T04:46:18;20.47;;;12.47;;
59062;SDS011;44851;45.648;9.004;2023-01-29T04:48:57;23.50;;;12.97;;
59062;SDS011;44851;45.648;9.004;2023-01-29T04:57:35;21.70;;;13.00;;
59062;SDS011;44851;45.648;9.004;2023-01-29T05:02:43;23.90;;;12.77;;
59062;SDS011;44851;45.648;9.004;2023-01-29T05:05:09;22.47;;;11.90;;
59062;SDS011;44851;45.648;9.004;2023-01-29T05:07:37;25.60;;;13.57;;
59062;SDS011;44851;45.648;9.004;2023-01-29T05:10:04;24.43;;;13.10;;
59062;SDS011;44851;45.648;9.004;2023-01-29T05:12:32;24.53;;;15.03;;
59062;SDS011;44851;45.648;9.004;2023-01-29T05:15:01;25.60;;;14.37;;
59062;SDS011;44851;45.648;9.004;2023-01-29T05:17:29;26.07;;;13.90;;
59062;SDS011;44851;45.648;9.004;2023-01-29T05:19:55;24.53;;;13.40;;
59062;SDS011;44851;45.648;9.004;2023-01-29T05:22:21;22.77;;;13.80;;
59062;SDS011;44851;45.648;9.004;2023-01-29T05:24:47;23.50;;;12.83;;
59062;SDS011;44851;45.648;9.004;2023-01-29T05:27:18;24.17;;;13.40;;
59062;SDS011;44851;45.648;9.004;2023-01-29T05:30:05;23.57;;;12.70;;
59062;SDS011;44851;45.648;9.004;2023-01-29T05:32:31;21.43;;;11.73;;
59062;SDS011;44851;45.648;9.004;2023-01-29T05:34:56;25.40;;;13.50;;
59062;SDS011;44851;45.648;9.004;2023-01-29T05:37:21;25.43;;;13.13;;
59062;SDS011;44851;45.648;9.004;2023-01-29T05:39:47;31.57;;;14.27;;
59062;SDS011;44851;45.648;9.004;2023-01-29T05:42:12;25.53;;;12.90;;
59062;SDS011;44851;45.648;9.004;2023-01-29T05:44:37;33.90;;;13.03;;
59062;SDS011;44851;45.648;9.004;2023-01-29T05:47:03;26.03;;;13.00;;
59062;SDS011;44851;45.648;9.004;2023-01-29T05:49:28;18.73;;;11.90;;
59062;SDS011;44851;45.648;9.004;2023-01-29T05:51:54;22.60;;;12.53;;
59062;SDS011;44851;45.648;9.004;2023-01-29T05:54:19;24.20;;;12.57;;
59062;SDS011;44851;45.648;9.004;2023-01-29T05:56:45;26.47;;;13.60;;
59062;SDS011;44851;45.648;9.004;2023-01-29T05:59:10;21.47;;;12.43;;
59062;SDS011;44851;45.648;9.004;2023-01-29T06:01:35;20.93;;;12.07;;
59062;SDS011;44851;45.648;9.004;2023-01-29T06:04:01;22.40;;;12.47;;
59062;SDS011;44851;45.648;9.004;2023-01-29T06:06:26;21.57;;;12.30;;
59062;SDS011;44851;45.648;9.004;2023-01-29T06:08:51;22.73;;;12.67;;
59062;SDS011;44851;45.648;9.004;2023-01-29T06:11:17;22.97;;;12.73;;
59062;SDS011;44851;45.648;9.004;2023-01-29T06:13:43;19.60;;;11.13;;
59062;SDS011;44851;45.648;9.004;2023-01-29T06:16:10;21.63;;;12.23;;
59062;SDS011;44851;45.648;9.004;2023-01-29T06:18:36;23.47;;;14.00;;
59062;SDS011;44851;45.648;9.004;2023-01-29T06:21:03;25.27;;;12.67;;
59062;SDS011;44851;45.648;9.004;2023-01-29T06:23:30;21.40;;;12.73;;
59062;SDS011;44851;45.648;9.004;2023-01-29T06:25:59;23.17;;;12.60;;
59062;SDS011;44851;45.648;9.004;2023-01-29T06:28:29;22.97;;;12.87;;
59062;SDS011;44851;45.648;9.004;2023-01-29T06:30:58;21.73;;;12.57;;
59062;SDS011;44851;45.648;9.004;2023-01-29T06:33:26;22.23;;;12.50;;
59062;SDS011;44851;45.648;9.004;2023-01-29T06:35:55;24.87;;;11.70;;
59062;SDS011;44851;45.648;9.004;2023-01-29T06:38:24;25.67;;;12.70;;
59062;SDS011;44851;45.648;9.004;2023-01-29T06:40:50;22.07;;;11.73;;
59062;SDS011;44851;45.648;9.004;2023-01-29T06:43:16;20.83;;;12.23;;
59062;SDS011;44851;45.648;9.004;2023-01-29T06:45:45;22.53;;;12.73;;
59062;SDS011;44851;45.648;9.004;2023-01-29T06:48:15;21.77;;;12.43;;
59062;SDS011;44851;45.648;9.004;2023-01-29T06:50:40;21.57;;;11.73;;
59062;SDS011;44851;45.648;9.004;2023-01-29T06:53:05;23.70;;;12.63;;
59062;SDS011;44851;45.648;9.004;2023-01-29T06:55:31;23.03;;;12.27;;
59062;SDS011;44851;45.648;9.004;2023-01-29T06:57:56;22.13;;;12.83;;
59062;SDS011;44851;45.648;9.004;2023-01-29T07:00:21;21.90;;;11.93;;
59062;SDS011;44851;45.648;9.004;2023-01-29T07:02:50;21.10;;;11.87;;
59062;SDS011;44851;45.648;9.004;2023-01-29T07:05:15;25.57;;;13.77;;
59062;SDS011;44851;45.648;9.004;2023-01-29T07:07:40;18.97;;;11.67;;
59062;SDS011;44851;45.648;9.004;2023-01-29T07:10:06;25.63;;;12.93;;
59062;SDS011;44851;45.648;9.004;2023-01-29T07:12:32;19.03;;;12.03;;
59062;SDS011;44851;45.648;9.004;2023-01-29T07:14:57;20.67;;;12.13;;
59062;SDS011;44851;45.648;9.004;2023-01-29T07:17:23;20.73;;;11.43;;
59062;SDS011;44851;45.648;9.004;2023-01-29T07:19:48;22.63;;;12.27;;
59062;SDS011;44851;45.648;9.004;2023-01-29T07:22:13;19.53;;;11.80;;
59062;SDS011;44851;45.648;9.004;2023-01-29T07:24:40;22.73;;;12.60;;
59062;SDS011;44851;45.648;9.004;2023-01-29T07:27:05;23.43;;;12.13;;
59062;SDS011;44851;45.648;9.004;2023-01-29T07:29:31;24.77;;;13.00;;
59062;SDS011;44851;45.648;9.004;2023-01-29T07:31:56;21.07;;;13.13;;
59062;SDS011;44851;45.648;9.004;2023-01-29T07:34:21;20.97;;;13.43;;
59062;SDS011;44851;45.648;9.004;2023-01-29T07:36:47;22.57;;;13.23;;
59062;SDS011;44851;45.648;9.004;2023-01-29T07:39:12;25.47;;;13.83;;
59062;SDS011;44851;45.648;9.004;2023-01-29T07:41:37;24.63;;;12.80;;
59062;SDS011;44851;45.648;9.004;2023-01-29T07:44:03;25.70;;;12.90;;
59062;SDS011;44851;45.648;9.004;2023-01-29T07:46:28;22.43;;;13.13;;
59062;SDS011;44851;45.648;9.004;2023-01-29T07:48:53;21.60;;;13.20;;
59062;SDS011;44851;45.648;9.004;2023-01-29T07:51:19;22.73;;;13.17;;
59062;SDS011;44851;45.648;9.004;2023-01-29T07:53:45;22.07;;;13.43;;
59062;SDS011;44851;45.648;9.004;2023-01-29T07:56:11;18.50;;;12.30;;
59062;SDS011;44851;45.648;9.004;2023-01-29T07:58:36;26.17;;;14.23;;
59062;SDS011;44851;45.648;9.004;2023-01-29T08:01:05;26.50;;;15.00;;
59062;SDS011;44851;45.648;9.004;2023-01-29T08:03:34;25.90;;;14.87;;
59062;SDS011;44851;45.648;9.004;2023-01-29T08:05:59;27.37;;;16.37;;
59062;SDS011;44851;45.648;9.004;2023-01-29T08:08:25;25.63;;;14.13;;
59062;SDS011;44851;45.648;9.004;2023-01-29T08:10:50;26.30;;;14.43;;
59062;SDS011;44851;45.648;9.004;2023-01-29T08:13:16;26.90;;;14.47;;
59062;SDS011;44851;45.648;9.004;2023-01-29T08:15:44;24.63;;;14.30;;
59062;SDS011;44851;45.648;9.004;2023-01-29T08:18:10;25.90;;;14.30;;
59062;SDS011;44851;45.648;9.004;2023-01-29T08:20:35;24.97;;;13.73;;
59062;SDS011;44851;45.648;9.004;2023-01-29T08:23:02;19.97;;;12.13;;
59062;SDS011;44851;45.648;9.004;2023-01-29T08:25:30;27.23;;;12.27;;
59062;SDS011;44851;45.648;9.004;2023-01-29T08:27:56;19.77;;;12.33;;
59062;SDS011;44851;45.648;9.004;2023-01-29T08:30:23;24.43;;;14.10;;
59062;SDS011;44851;45.648;9.004;2023-01-29T08:32:52;23.60;;;12.77;;
59062;SDS011;44851;45.648;9.004;2023-01-29T08:35:17;20.50;;;12.13;;
59062;SDS011;44851;45.648;9.004;2023-01-29T08:37:43;21.90;;;12.53;;
59062;SDS011;44851;45.648;9.004;2023-01-29T08:40:08;23.60;;;12.73;;
59062;SDS011;44851;45.648;9.004;2023-01-29T08:42:36;22.03;;;12.57;;
59062;SDS011;44851;45.648;9.004;2023-01-29T08:45:01;25.97;;;12.53;;
59062;SDS011;44851;45.648;9.004;2023-01-29T08:47:26;20.00;;;12.00;;
59062;SDS011;44851;45.648;9.004;2023-01-29T08:49:52;24.57;;;13.57;;
59062;SDS011;44851;45.648;9.004;2023-01-29T08:52:17;22.57;;;13.17;;
59062;SDS011;44851;45.648;9.004;2023-01-29T08:54:42;24.70;;;13.23;;
59062;SDS011;44851;45.648;9.004;2023-01-29T08:57:08;20.90;;;11.13;;
59062;SDS011;44851;45.648;9.004;2023-01-29T08:59:33;21.63;;;11.87;;
59062;SDS011;44851;45.648;9.004;2023-01-29T09:01:58;21.33;;;12.67;;
59062;SDS011;44851;45.648;9.004;2023-01-29T09:04:24;20.20;;;13.27;;
59062;SDS011;44851;45.648;9.004;2023-01-29T09:06:49;21.43;;;12.20;;
59062;SDS011;44851;45.648;9.004;2023-01-29T09:09:14;22.90;;;13.03;;
59062;SDS011;44851;45.648;9.004;2023-01-29T09:11:40;21.57;;;13.73;;
59062;SDS011;44851;45.648;9.004;2023-01-29T09:14:05;19.23;;;11.77;;
59062;SDS011;44851;45.648;9.004;2023-01-29T09:16:30;20.43;;;12.30;;
59062;SDS011;44851;45.648;9.004;2023-01-29T09:18:56;20.10;;;11.73;;
59062;SDS011;44851;45.648;9.004;2023-01-29T09:21:21;18.63;;;11.70;;
59062;SDS011;44851;45.648;9.004;2023-01-29T09:23:46;18.67;;;11.70;;
59062;SDS011;44851;45.648;9.004;2023-01-29T09:26:12;18.17;;;10.60;;
59062;SDS011;44851;45.648;9.004;2023-01-29T09:28:37;20.47;;;11.67;;
59062;SDS011;44851;45.648;9.004;2023-01-29T09:31:02;19.87;;;10.97;;
59062;SDS011;44851;45.648;9.004;2023-01-29T09:33:28;18.37;;;11.80;;
59062;SDS011;44851;45.648;9.004;2023-01-29T09:35:54;19.43;;;11.87;;
59062;SDS011;44851;45.648;9.004;2023-01-29T09:38:20;24.40;;;12.67;;
59062;SDS011;44851;45.648;9.004;2023-01-29T09:43:46;20.43;;;12.33;;
59062;SDS011;44851;45.648;9.004;2023-01-29T09:46:20;22.37;;;11.77;;
59062;SDS011;44851;45.648;9.004;2023-01-29T09:48:51;19.20;;;12.83;;
59062;SDS011;44851;45.648;9.004;2023-01-29T09:51:27;19.43;;;11.67;;
59062;SDS011;44851;45.648;9.004;2023-01-29T09:56:47;18.37;;;11.17;;
59062;SDS011;44851;45.648;9.004;2023-01-29T09:59:17;22.10;;;12.43;;
59062;SDS011;44851;45.648;9.004;2023-01-29T10:07:32;19.20;;;11.30;;
59062;SDS011;44851;45.648;9.004;2023-01-29T10:13:39;17.97;;;10.73;;
59062;SDS011;44851;45.648;9.004;2023-01-29T10:16:16;18.87;;;11.07;;
59062;SDS011;44851;45.648;9.004;2023-01-29T10:18:56;21.60;;;11.77;;
59062;SDS011;44851;45.648;9.004;2023-01-29T10:24:57;20.47;;;11.27;;
59062;SDS011;44851;45.648;9.004;2023-01-29T10:27:30;17.97;;;11.30;;
59062;SDS011;44851;45.648;9.004;2023-01-29T10:29:57;18.90;;;11.90;;
59062;SDS011;44851;45.648;9.004;2023-01-29T10:32:26;18.07;;;10.53;;
59062;SDS011;44851;45.648;9.004;2023-01-29T10:35:04;18.30;;;10.57;;
59062;SDS011;44851;45.648;9.004;2023-01-29T10:37:41;17.90;;;8.73;;
59062;SDS011;44851;45.648;9.004;2023-01-29T10:40:14;17.23;;;9.87;;
59062;SDS011;44851;45.648;9.004;2023-01-29T10:42:43;16.00;;;9.53;;
59062;SDS011;44851;45.648;9.004;2023-01-29T10:45:18;17.10;;;10.63;;
59062;SDS011;44851;45.648;9.004;2023-01-29T10:50:22;19.93;;;12.00;;
59062;SDS011;44851;45.648;9.004;2023-01-29T10:58:35;24.80;;;14.17;;
59062;SDS011;44851;45.648;9.004;2023-01-29T11:01:06;17.67;;;9.80;;
59062;SDS011;44851;45.648;9.004;2023-01-29T11:03:35;15.53;;;9.37;;
59062;SDS011;44851;45.648;9.004;2023-01-29T11:09:07;15.77;;;9.03;;
59062;SDS011;44851;45.648;9.004;2023-01-29T11:14:46;18.43;;;9.50;;
59062;SDS011;44851;45.648;9.004;2023-01-29T11:17:16;14.93;;;9.70;;
59062;SDS011;44851;45.648;9.004;2023-01-29T11:19:47;17.30;;;8.73;;
59062;SDS011;44851;45.648;9.004;2023-01-29T11:22:16;15.53;;;10.67;;
59062;SDS011;44851;45.648;9.004;2023-01-29T11:24:44;21.73;;;11.37;;
59062;SDS011;44851;45.648;9.004;2023-01-29T11:27:14;16.07;;;9.50;;
59062;SDS011;44851;45.648;9.004;2023-01-29T11:29:53;15.73;;;8.37;;
59062;SDS011;44851;45.648;9.004;2023-01-29T11:35:01;14.03;;;8.50;;
59062;SDS011;44851;45.648;9.004;2023-01-29T11:37:38;13.63;;;8.00;;
59062;SDS011;44851;45.648;9.004;2023-01-29T11:42:44;13.77;;;8.70;;
59062;SDS011;44851;45.648;9.004;2023-01-29T11:45:24;13.83;;;8.93;;
59062;SDS011;44851;45.648;9.004;2023-01-29T11:47:57;14.00;;;8.73;;
59062;SDS011;44851;45.648;9.004;2023-01-29T11:50:24;13.97;;;9.97;;
59062;SDS011;44851;45.648;9.004;2023-01-29T11:52:51;14.87;;;8.87;;
59062;SDS011;44851;45.648;9.004;2023-01-29T11:55:18;18.80;;;11.33;;
59062;SDS011;44851;45.648;9.004;2023-01-29T11:57:51;19.40;;;11.50;;
59062;SDS011;44851;45.648;9.004;2023-01-29T12:00:28;18.03;;;10.93;;
59062;SDS011;44851;45.648;9.004;2023-01-29T12:03:06;16.50;;;10.27;;
59062;SDS011;44851;45.648;9.004;2023-01-29T12:05:36;15.90;;;10.07;;
59062;SDS011;44851;45.648;9.004;2023-01-29T12:08:09;18.67;;;11.83;;
59062;SDS011;44851;45.648;9.004;2023-01-29T12:10:41;19.93;;;12.10;;
59062;SDS011;44851;45.648;9.004;2023-01-29T12:15:44;18.43;;;11.47;;
59062;SDS011;44851;45.648;9.004;2023-01-29T12:20:54;22.47;;;12.97;;
59062;SDS011;44851;45.648;9.004;2023-01-29T12:23:31;20.63;;;13.00;;
59062;SDS011;44851;45.648;9.004;2023-01-29T12:26:03;22.23;;;13.37;;
59062;SDS011;44851;45.648;9.004;2023-01-29T12:31:08;15.83;;;10.60;;
59062;SDS011;44851;45.648;9.004;2023-01-29T12:36:30;16.97;;;10.83;;
59062;SDS011;44851;45.648;9.004;2023-01-29T12:39:01;19.30;;;10.90;;
59062;SDS011;44851;45.648;9.004;2023-01-29T12:43:58;18.57;;;12.27;;
59062;SDS011;44851;45.648;9.004;2023-01-29T12:46:39;22.53;;;12.57;;
59062;SDS011;44851;45.648;9.004;2023-01-29T12:49:17;22.13;;;13.07;;
59062;SDS011;44851;45.648;9.004;2023-01-29T12:52:10;16.27;;;11.00;;
59062;SDS011;44851;45.648;9.004;2023-01-29T12:54:40;18.20;;;10.00;;
59062;SDS011;44851;45.648;9.004;2023-01-29T12:57:19;15.87;;;8.83;;
59062;SDS011;44851;45.648;9.004;2023-01-29T12:59:54;20.33;;;11.37;;
59062;SDS011;44851;45.648;9.004;2023-01-29T13:02:32;18.30;;;12.17;;
59062;SDS011;44851;45.648;9.004;2023-01-29T13:05:05;21.60;;;12.80;;
59062;SDS011;44851;45.648;9.004;2023-01-29T13:07:43;19.57;;;12.77;;
59062;SDS011;44851;45.648;9.004;2023-01-29T13:10:14;24.20;;;12.80;;
59062;SDS011;44851;45.648;9.004;2023-01-29T13:12:47;23.83;;;13.30;;
59062;SDS011;44851;45.648;9.004;2023-01-29T13:15:23;21.30;;;14.00;;
59062;SDS011;44851;45.648;9.004;2023-01-29T13:17:54;18.27;;;12.40;;
59062;SDS011;44851;45.648;9.004;2023-01-29T13:20:31;18.57;;;13.03;;
59062;SDS011;44851;45.648;9.004;2023-01-29T13:23:11;20.50;;;13.37;;
59062;SDS011;44851;45.648;9.004;2023-01-29T13:25:40;21.70;;;12.07;;
59062;SDS011;44851;45.648;9.004;2023-01-29T13:28:15;21.80;;;13.10;;
59062;SDS011;44851;45.648;9.004;2023-01-29T13:30:42;23.80;;;13.23;;
59062;SDS011;44851;45.648;9.004;2023-01-29T13:33:14;20.47;;;12.57;;
59062;SDS011;44851;45.648;9.004;2023-01-29T13:35:47;19.27;;;12.33;;
59062;SDS011;44851;45.648;9.004;2023-01-29T13:38:28;23.50;;;13.90;;
59062;SDS011;44851;45.648;9.004;2023-01-29T13:41:00;21.53;;;13.23;;
59062;SDS011;44851;45.648;9.004;2023-01-29T13:43:32;22.03;;;13.33;;
59062;SDS011;44851;45.648;9.004;2023-01-29T13:46:05;20.17;;;13.73;;
59062;SDS011;44851;45.648;9.004;2023-01-29T13:48:39;21.23;;;12.80;;
59062;SDS011;44851;45.648;9.004;2023-01-29T13:51:08;22.07;;;13.40;;
59062;SDS011;44851;45.648;9.004;2023-01-29T13:53:51;21.37;;;13.07;;
59062;SDS011;44851;45.648;9.004;2023-01-29T13:58:58;20.43;;;12.07;;
59062;SDS011;44851;45.648;9.004;2023-01-29T14:06:46;20.60;;;12.47;;
59062;SDS011;44851;45.648;9.004;2023-01-29T14:14:49;19.43;;;11.67;;
59062;SDS011;44851;45.648;9.004;2023-01-29T14:17:29;17.43;;;11.20;;
59062;SDS011;44851;45.648;9.004;2023-01-29T14:20:15;22.37;;;12.27;;
59062;SDS011;44851;45.648;9.004;2023-01-29T14:22:43;18.43;;;11.27;;
59062;SDS011;44851;45.648;9.004;2023-01-29T14:25:14;20.87;;;11.93;;
59062;SDS011;44851;45.648;9.004;2023-01-29T14:27:46;19.87;;;11.60;;
59062;SDS011;44851;45.648;9.004;2023-01-29T14:30:14;25.97;;;11.97;;
59062;SDS011;44851;45.648;9.004;2023-01-29T14:32:41;21.63;;;11.50;;
59062;SDS011;44851;45.648;9.004;2023-01-29T14:35:21;19.83;;;12.27;;
59062;SDS011;44851;45.648;9.004;2023-01-29T14:37:52;18.17;;;11.40;;
59062;SDS011;44851;45.648;9.004;2023-01-29T14:40:24;21.83;;;12.77;;
59062;SDS011;44851;45.648;9.004;2023-01-29T14:53:17;20.13;;;12.87;;
59062;SDS011;44851;45.648;9.004;2023-01-29T14:58:29;17.30;;;11.40;;
59062;SDS011;44851;45.648;9.004;2023-01-29T15:01:00;20.40;;;12.67;;
59062;SDS011;44851;45.648;9.004;2023-01-29T15:03:32;18.93;;;12.70;;
59062;SDS011;44851;45.648;9.004;2023-01-29T15:06:03;21.23;;;13.07;;
59062;SDS011;44851;45.648;9.004;2023-01-29T15:08:35;20.57;;;12.63;;
59062;SDS011;44851;45.648;9.004;2023-01-29T15:11:11;20.03;;;12.13;;
59062;SDS011;44851;45.648;9.004;2023-01-29T15:14:04;19.47;;;11.27;;
59062;SDS011;44851;45.648;9.004;2023-01-29T15:16:43;21.40;;;12.17;;
59062;SDS011;44851;45.648;9.004;2023-01-29T15:19:36;20.43;;;12.67;;
59062;SDS011;44851;45.648;9.004;2023-01-29T15:22:09;23.50;;;12.67;;
59062;SDS011;44851;45.648;9.004;2023-01-29T15:25:06;21.33;;;13.30;;
59062;SDS011;44851;45.648;9.004;2023-01-29T15:27:41;19.93;;;12.40;;
59062;SDS011;44851;45.648;9.004;2023-01-29T15:30:11;22.17;;;12.50;;
59062;SDS011;44851;45.648;9.004;2023-01-29T15:32:40;20.20;;;12.70;;
59062;SDS011;44851;45.648;9.004;2023-01-29T15:35:07;19.93;;;12.00;;
59062;SDS011;44851;45.648;9.004;2023-01-29T15:37:35;22.43;;;12.07;;
59062;SDS011;44851;45.648;9.004;2023-01-29T15:40:02;21.03;;;11.60;;
59062;SDS011;44851;45.648;9.004;2023-01-29T15:42:40;19.87;;;11.40;;
59062;SDS011;44851;45.648;9.004;2023-01-29T15:47:47;18.93;;;12.23;;
59062;SDS011;44851;45.648;9.004;2023-01-29T15:50:13;18.97;;;11.40;;
59062;SDS011;44851;45.648;9.004;2023-01-29T15:52:38;20.83;;;12.47;;
59062;SDS011;44851;45.648;9.004;2023-01-29T15:55:04;24.23;;;13.67;;
59062;SDS011;44851;45.648;9.004;2023-01-29T15:57:35;20.53;;;12.43;;
59062;SDS011;44851;45.648;9.004;2023-01-29T16:00:05;18.53;;;11.83;;
59062;SDS011;44851;45.648;9.004;2023-01-29T16:02:41;19.63;;;12.23;;
59062;SDS011;44851;45.648;9.004;2023-01-29T16:05:17;21.90;;;12.80;;
59062;SDS011;44851;45.648;9.004;2023-01-29T16:07:46;21.03;;;12.17;;
59062;SDS011;44851;45.648;9.004;2023-01-29T16:10:15;19.77;;;13.23;;
59062;SDS011;44851;45.648;9.004;2023-01-29T16:12:44;22.03;;;12.03;;
59062;SDS011;44851;45.648;9.004;2023-01-29T16:15:27;21.07;;;12.57;;
59062;SDS011;44851;45.648;9.004;2023-01-29T16:17:53;23.40;;;12.73;;
59062;SDS011;44851;45.648;9.004;2023-01-29T16:20:30;23.80;;;11.73;;
59062;SDS011;44851;45.648;9.004;2023-01-29T16:22:58;22.60;;;12.23;;
59062;SDS011;44851;45.648;9.004;2023-01-29T16:25:24;22.60;;;12.47;;
59062;SDS011;44851;45.648;9.004;2023-01-29T16:27:52;21.53;;;11.80;;
59062;SDS011;44851;45.648;9.004;2023-01-29T16:30:18;21.60;;;11.83;;
59062;SDS011;44851;45.648;9.004;2023-01-29T16:32:43;18.47;;;11.33;;
59062;SDS011;44851;45.648;9.004;2023-01-29T16:35:14;19.50;;;12.03;;
59062;SDS011;44851;45.648;9.004;2023-01-29T16:37:40;19.73;;;11.80;;
59062;SDS011;44851;45.648;9.004;2023-01-29T16:40:27;18.33;;;11.07;;
59062;SDS011;44851;45.648;9.004;2023-01-29T16:45:41;19.70;;;11.87;;
59062;SDS011;44851;45.648;9.004;2023-01-29T16:48:24;21.97;;;12.20;;
59062;SDS011;44851;45.648;9.004;2023-01-29T16:51:01;20.43;;;12.27;;
59062;SDS011;44851;45.648;9.004;2023-01-29T16:53:36;21.63;;;12.60;;
59062;SDS011;44851;45.648;9.004;2023-01-29T16:56:03;18.63;;;11.73;;
59062;SDS011;44851;45.648;9.004;2023-01-29T16:58:31;20.47;;;11.80;;
59062;SDS011;44851;45.648;9.004;2023-01-29T17:01:00;18.17;;;11.90;;
59062;SDS011;44851;45.648;9.004;2023-01-29T17:03:33;19.73;;;11.80;;
59062;SDS011;44851;45.648;9.004;2023-01-29T17:06:08;21.53;;;12.20;;